sensor_id;sensor_type;location;lat;lon;timestamp;P1;durP1;ratioP1;P2;durP2;ratioP2
82230;SDS011;71832;45.138;9.816;2024-02-21T00:01:45;54.67;;;25.52;;
82230;SDS011;71832;45.138;9.816;2024-02-21T00:04:13;43.25;;;23.20;;
82230;SDS011;71832;45.138;9.816;2024-02-21T00:06:42;38.08;;;21.38;;
82230;SDS011;71832;45.138;9.816;2024-02-21T00:09:11;52.28;;;25.63;;
82230;SDS011;71832;45.138;9.816;2024-02-21T00:11:40;55.50;;;27.08;;
82230;SDS011;71832;45.138;9.816;2024-02-21T00:14:08;54.55;;;26.27;;
82230;SDS011;71832;45.138;9.816;2024-02-21T00:16:36;70.95;;;31.15;;
82230;SDS011;71832;45.138;9.816;2024-02-21T00:19:04;67.80;;;32.40;;
82230;SDS011;71832;45.138;9.816;2024-02-21T00:21:32;64.45;;;30.30;;
82230;SDS011;71832;45.138;9.816;2024-02-21T00:24:01;57.45;;;28.15;;
82230;SDS011;71832;45.138;9.816;2024-02-21T00:26:29;65.18;;;30.02;;
82230;SDS011;71832;45.138;9.816;2024-02-21T00:28:57;68.28;;;31.77;;
82230;SDS011;71832;45.138;9.816;2024-02-21T00:31:26;77.22;;;33.60;;
82230;SDS011;71832;45.138;9.816;2024-02-21T00:33:55;77.80;;;35.90;;
82230;SDS011;71832;45.138;9.816;2024-02-21T00:36:24;81.57;;;37.75;;
82230;SDS011;71832;45.138;9.816;2024-02-21T00:38:52;80.63;;;37.08;;
82230;SDS011;71832;45.138;9.816;2024-02-21T00:41:20;69.22;;;32.90;;
82230;SDS011;71832;45.138;9.816;2024-02-21T00:43:49;55.83;;;28.63;;
82230;SDS011;71832;45.138;9.816;2024-02-21T00:46:16;53.90;;;27.77;;
82230;SDS011;71832;45.138;9.816;2024-02-21T00:48:45;30.02;;;18.27;;
82230;SDS011;71832;45.138;9.816;2024-02-21T00:51:14;29.75;;;17.48;;
82230;SDS011;71832;45.138;9.816;2024-02-21T00:53:43;33.70;;;19.50;;
82230;SDS011;71832;45.138;9.816;2024-02-21T00:56:11;33.65;;;18.48;;
82230;SDS011;71832;45.138;9.816;2024-02-21T00:58:40;44.85;;;21.92;;
82230;SDS011;71832;45.138;9.816;2024-02-21T01:01:09;49.22;;;23.50;;
82230;SDS011;71832;45.138;9.816;2024-02-21T01:03:39;40.58;;;21.38;;
82230;SDS011;71832;45.138;9.816;2024-02-21T01:06:07;38.17;;;19.35;;
82230;SDS011;71832;45.138;9.816;2024-02-21T01:08:36;38.80;;;20.15;;
82230;SDS011;71832;45.138;9.816;2024-02-21T01:11:05;44.65;;;22.35;;
82230;SDS011;71832;45.138;9.816;2024-02-21T01:13:34;40.55;;;21.45;;
82230;SDS011;71832;45.138;9.816;2024-02-21T01:16:02;39.92;;;22.02;;
82230;SDS011;71832;45.138;9.816;2024-02-21T01:18:32;38.80;;;21.67;;
82230;SDS011;71832;45.138;9.816;2024-02-21T01:21:01;35.05;;;19.55;;
82230;SDS011;71832;45.138;9.816;2024-02-21T01:23:33;36.60;;;19.48;;
82230;SDS011;71832;45.138;9.816;2024-02-21T01:26:02;43.15;;;22.40;;
82230;SDS011;71832;45.138;9.816;2024-02-21T01:28:31;42.45;;;23.80;;
82230;SDS011;71832;45.138;9.816;2024-02-21T01:30:59;47.60;;;25.80;;
82230;SDS011;71832;45.138;9.816;2024-02-21T01:33:28;45.10;;;24.75;;
82230;SDS011;71832;45.138;9.816;2024-02-21T01:36:01;61.55;;;29.75;;
82230;SDS011;71832;45.138;9.816;2024-02-21T01:38:30;49.10;;;27.80;;
82230;SDS011;71832;45.138;9.816;2024-02-21T01:40:59;54.22;;;27.92;;
82230;SDS011;71832;45.138;9.816;2024-02-21T01:43:28;54.00;;;29.27;;
82230;SDS011;71832;45.138;9.816;2024-02-21T01:45:55;52.45;;;27.60;;
82230;SDS011;71832;45.138;9.816;2024-02-21T01:48:24;51.38;;;25.95;;
82230;SDS011;71832;45.138;9.816;2024-02-21T01:50:53;46.58;;;26.05;;
82230;SDS011;71832;45.138;9.816;2024-02-21T01:53:23;47.35;;;26.35;;
82230;SDS011;71832;45.138;9.816;2024-02-21T01:55:57;59.22;;;29.95;;
82230;SDS011;71832;45.138;9.816;2024-02-21T01:58:25;40.05;;;24.00;;
82230;SDS011;71832;45.138;9.816;2024-02-21T02:00:54;50.00;;;26.27;;
82230;SDS011;71832;45.138;9.816;2024-02-21T02:03:23;49.13;;;26.90;;
82230;SDS011;71832;45.138;9.816;2024-02-21T02:05:51;57.90;;;27.25;;
82230;SDS011;71832;45.138;9.816;2024-02-21T02:08:19;53.05;;;26.67;;
82230;SDS011;71832;45.138;9.816;2024-02-21T02:10:48;57.00;;;28.58;;
82230;SDS011;71832;45.138;9.816;2024-02-21T02:13:16;56.65;;;27.67;;
82230;SDS011;71832;45.138;9.816;2024-02-21T02:15:45;55.33;;;28.23;;
82230;SDS011;71832;45.138;9.816;2024-02-21T02:18:14;54.63;;;28.17;;
82230;SDS011;71832;45.138;9.816;2024-02-21T02:20:43;55.78;;;30.00;;
82230;SDS011;71832;45.138;9.816;2024-02-21T02:25:43;51.80;;;26.95;;
82230;SDS011;71832;45.138;9.816;2024-02-21T02:28:15;47.50;;;25.30;;
82230;SDS011;71832;45.138;9.816;2024-02-21T02:30:43;48.65;;;25.20;;
82230;SDS011;71832;45.138;9.816;2024-02-21T02:33:12;50.50;;;26.48;;
82230;SDS011;71832;45.138;9.816;2024-02-21T02:35:43;51.47;;;27.90;;
82230;SDS011;71832;45.138;9.816;2024-02-21T02:38:12;53.42;;;28.27;;
82230;SDS011;71832;45.138;9.816;2024-02-21T02:40:41;52.85;;;26.88;;
82230;SDS011;71832;45.138;9.816;2024-02-21T02:43:11;47.75;;;26.48;;
82230;SDS011;71832;45.138;9.816;2024-02-21T02:45:39;52.53;;;26.27;;
82230;SDS011;71832;45.138;9.816;2024-02-21T02:48:08;45.60;;;23.98;;
82230;SDS011;71832;45.138;9.816;2024-02-21T02:50:37;50.47;;;25.40;;
82230;SDS011;71832;45.138;9.816;2024-02-21T02:53:06;44.65;;;25.45;;
82230;SDS011;71832;45.138;9.816;2024-02-21T02:55:34;42.78;;;23.73;;
82230;SDS011;71832;45.138;9.816;2024-02-21T02:58:03;42.30;;;22.95;;
82230;SDS011;71832;45.138;9.816;2024-02-21T03:00:31;41.47;;;21.40;;
82230;SDS011;71832;45.138;9.816;2024-02-21T03:03:02;46.47;;;24.95;;
82230;SDS011;71832;45.138;9.816;2024-02-21T03:05:30;42.50;;;23.30;;
82230;SDS011;71832;45.138;9.816;2024-02-21T03:07:59;41.83;;;23.80;;
82230;SDS011;71832;45.138;9.816;2024-02-21T03:10:28;43.38;;;23.38;;
82230;SDS011;71832;45.138;9.816;2024-02-21T03:12:57;41.30;;;23.70;;
82230;SDS011;71832;45.138;9.816;2024-02-21T03:15:25;44.05;;;24.58;;
82230;SDS011;71832;45.138;9.816;2024-02-21T03:17:54;39.85;;;22.58;;
82230;SDS011;71832;45.138;9.816;2024-02-21T03:20:23;38.80;;;22.05;;
82230;SDS011;71832;45.138;9.816;2024-02-21T03:22:51;41.42;;;23.02;;
82230;SDS011;71832;45.138;9.816;2024-02-21T03:25:19;39.22;;;23.17;;
82230;SDS011;71832;45.138;9.816;2024-02-21T03:27:47;41.00;;;22.65;;
82230;SDS011;71832;45.138;9.816;2024-02-21T03:30:15;49.95;;;27.25;;
82230;SDS011;71832;45.138;9.816;2024-02-21T03:32:44;46.67;;;24.55;;
82230;SDS011;71832;45.138;9.816;2024-02-21T03:35:12;43.88;;;24.80;;
82230;SDS011;71832;45.138;9.816;2024-02-21T03:37:40;40.13;;;23.10;;
82230;SDS011;71832;45.138;9.816;2024-02-21T03:40:09;41.20;;;21.92;;
82230;SDS011;71832;45.138;9.816;2024-02-21T03:42:37;42.25;;;23.08;;
82230;SDS011;71832;45.138;9.816;2024-02-21T03:45:06;39.88;;;21.95;;
82230;SDS011;71832;45.138;9.816;2024-02-21T03:47:35;39.80;;;21.73;;
82230;SDS011;71832;45.138;9.816;2024-02-21T03:50:04;43.38;;;23.08;;
82230;SDS011;71832;45.138;9.816;2024-02-21T03:52:33;41.20;;;22.48;;
82230;SDS011;71832;45.138;9.816;2024-02-21T03:55:02;41.38;;;22.10;;
82230;SDS011;71832;45.138;9.816;2024-02-21T03:57:31;42.88;;;21.77;;
82230;SDS011;71832;45.138;9.816;2024-02-21T03:59:59;41.35;;;23.98;;
82230;SDS011;71832;45.138;9.816;2024-02-21T04:02:29;41.75;;;22.27;;
82230;SDS011;71832;45.138;9.816;2024-02-21T04:04:58;38.95;;;22.17;;
82230;SDS011;71832;45.138;9.816;2024-02-21T04:07:26;38.03;;;22.67;;
82230;SDS011;71832;45.138;9.816;2024-02-21T04:09:55;39.35;;;21.80;;
82230;SDS011;71832;45.138;9.816;2024-02-21T04:12:24;42.28;;;22.83;;
82230;SDS011;71832;45.138;9.816;2024-02-21T04:14:53;38.55;;;21.08;;
82230;SDS011;71832;45.138;9.816;2024-02-21T04:17:22;41.60;;;22.02;;
82230;SDS011;71832;45.138;9.816;2024-02-21T04:19:49;38.28;;;21.95;;
82230;SDS011;71832;45.138;9.816;2024-02-21T04:22:23;38.80;;;22.20;;
82230;SDS011;71832;45.138;9.816;2024-02-21T04:24:51;39.20;;;21.95;;
82230;SDS011;71832;45.138;9.816;2024-02-21T04:27:19;40.08;;;22.55;;
82230;SDS011;71832;45.138;9.816;2024-02-21T04:29:47;42.60;;;22.30;;
82230;SDS011;71832;45.138;9.816;2024-02-21T04:32:16;39.17;;;22.58;;
82230;SDS011;71832;45.138;9.816;2024-02-21T04:34:44;43.00;;;23.55;;
82230;SDS011;71832;45.138;9.816;2024-02-21T04:37:13;44.90;;;23.38;;
82230;SDS011;71832;45.138;9.816;2024-02-21T04:39:42;42.20;;;23.17;;
82230;SDS011;71832;45.138;9.816;2024-02-21T04:42:10;46.78;;;25.40;;
82230;SDS011;71832;45.138;9.816;2024-02-21T04:44:39;45.08;;;24.30;;
82230;SDS011;71832;45.138;9.816;2024-02-21T04:47:07;54.72;;;27.65;;
82230;SDS011;71832;45.138;9.816;2024-02-21T04:49:35;55.45;;;28.85;;
82230;SDS011;71832;45.138;9.816;2024-02-21T04:52:03;59.60;;;30.55;;
82230;SDS011;71832;45.138;9.816;2024-02-21T04:54:32;56.30;;;30.25;;
82230;SDS011;71832;45.138;9.816;2024-02-21T04:57:01;63.13;;;31.95;;
82230;SDS011;71832;45.138;9.816;2024-02-21T04:59:30;77.97;;;31.48;;
82230;SDS011;71832;45.138;9.816;2024-02-21T05:02:00;52.58;;;26.33;;
82230;SDS011;71832;45.138;9.816;2024-02-21T05:04:29;47.05;;;24.27;;
82230;SDS011;71832;45.138;9.816;2024-02-21T05:06:57;41.72;;;22.90;;
82230;SDS011;71832;45.138;9.816;2024-02-21T05:09:26;46.92;;;26.00;;
82230;SDS011;71832;45.138;9.816;2024-02-21T05:11:54;44.88;;;24.50;;
82230;SDS011;71832;45.138;9.816;2024-02-21T05:14:24;46.10;;;25.50;;
82230;SDS011;71832;45.138;9.816;2024-02-21T05:16:53;45.70;;;25.92;;
82230;SDS011;71832;45.138;9.816;2024-02-21T05:19:21;46.55;;;27.40;;
82230;SDS011;71832;45.138;9.816;2024-02-21T05:21:49;47.45;;;25.00;;
82230;SDS011;71832;45.138;9.816;2024-02-21T05:24:16;44.13;;;24.50;;
82230;SDS011;71832;45.138;9.816;2024-02-21T05:26:44;48.47;;;25.85;;
82230;SDS011;71832;45.138;9.816;2024-02-21T05:29:12;43.45;;;23.70;;
82230;SDS011;71832;45.138;9.816;2024-02-21T05:34:19;44.08;;;23.45;;
82230;SDS011;71832;45.138;9.816;2024-02-21T05:36:49;39.22;;;22.02;;
82230;SDS011;71832;45.138;9.816;2024-02-21T05:39:17;43.47;;;23.08;;
82230;SDS011;71832;45.138;9.816;2024-02-21T05:41:45;40.67;;;22.27;;
82230;SDS011;71832;45.138;9.816;2024-02-21T05:44:13;37.72;;;21.98;;
82230;SDS011;71832;45.138;9.816;2024-02-21T05:46:41;40.97;;;22.23;;
82230;SDS011;71832;45.138;9.816;2024-02-21T05:49:09;41.72;;;22.05;;
82230;SDS011;71832;45.138;9.816;2024-02-21T05:51:36;40.35;;;22.08;;
82230;SDS011;71832;45.138;9.816;2024-02-21T05:54:04;42.85;;;22.65;;
82230;SDS011;71832;45.138;9.816;2024-02-21T05:56:33;45.15;;;23.13;;
82230;SDS011;71832;45.138;9.816;2024-02-21T05:59:01;40.25;;;22.33;;
82230;SDS011;71832;45.138;9.816;2024-02-21T06:01:30;42.00;;;23.05;;
82230;SDS011;71832;45.138;9.816;2024-02-21T06:03:58;40.58;;;21.98;;
82230;SDS011;71832;45.138;9.816;2024-02-21T06:06:28;35.58;;;20.55;;
82230;SDS011;71832;45.138;9.816;2024-02-21T06:08:56;32.03;;;20.17;;
82230;SDS011;71832;45.138;9.816;2024-02-21T06:11:26;33.78;;;19.88;;
82230;SDS011;71832;45.138;9.816;2024-02-21T06:13:54;34.38;;;20.23;;
82230;SDS011;71832;45.138;9.816;2024-02-21T06:16:22;30.77;;;18.95;;
82230;SDS011;71832;45.138;9.816;2024-02-21T06:18:50;36.47;;;21.27;;
82230;SDS011;71832;45.138;9.816;2024-02-21T06:21:17;35.28;;;21.08;;
82230;SDS011;71832;45.138;9.816;2024-02-21T06:23:45;34.95;;;20.13;;
82230;SDS011;71832;45.138;9.816;2024-02-21T06:26:12;33.90;;;19.92;;
82230;SDS011;71832;45.138;9.816;2024-02-21T06:28:40;30.27;;;18.67;;
82230;SDS011;71832;45.138;9.816;2024-02-21T06:31:08;30.70;;;18.60;;
82230;SDS011;71832;45.138;9.816;2024-02-21T06:33:35;31.77;;;19.00;;
82230;SDS011;71832;45.138;9.816;2024-02-21T06:36:04;32.00;;;19.52;;
82230;SDS011;71832;45.138;9.816;2024-02-21T06:38:32;34.20;;;19.90;;
82230;SDS011;71832;45.138;9.816;2024-02-21T06:40:59;34.05;;;20.02;;
82230;SDS011;71832;45.138;9.816;2024-02-21T06:43:28;31.88;;;19.42;;
82230;SDS011;71832;45.138;9.816;2024-02-21T06:45:55;34.22;;;20.95;;
82230;SDS011;71832;45.138;9.816;2024-02-21T06:48:22;32.05;;;19.73;;
82230;SDS011;71832;45.138;9.816;2024-02-21T06:50:50;29.75;;;18.30;;
82230;SDS011;71832;45.138;9.816;2024-02-21T06:53:17;32.38;;;20.52;;
82230;SDS011;71832;45.138;9.816;2024-02-21T06:55:44;35.67;;;20.50;;
82230;SDS011;71832;45.138;9.816;2024-02-21T06:58:12;33.85;;;20.38;;
82230;SDS011;71832;45.138;9.816;2024-02-21T07:00:42;31.77;;;19.23;;
82230;SDS011;71832;45.138;9.816;2024-02-21T07:03:11;28.27;;;18.95;;
82230;SDS011;71832;45.138;9.816;2024-02-21T07:05:38;29.48;;;19.23;;
82230;SDS011;71832;45.138;9.816;2024-02-21T07:08:07;34.30;;;21.13;;
82230;SDS011;71832;45.138;9.816;2024-02-21T07:10:36;27.55;;;17.90;;
82230;SDS011;71832;45.138;9.816;2024-02-21T07:13:04;29.55;;;18.00;;
82230;SDS011;71832;45.138;9.816;2024-02-21T07:15:33;29.58;;;17.63;;
82230;SDS011;71832;45.138;9.816;2024-02-21T07:18:02;29.25;;;18.38;;
82230;SDS011;71832;45.138;9.816;2024-02-21T07:20:31;27.02;;;17.42;;
82230;SDS011;71832;45.138;9.816;2024-02-21T07:23:03;29.65;;;18.40;;
82230;SDS011;71832;45.138;9.816;2024-02-21T07:25:31;32.25;;;19.48;;
82230;SDS011;71832;45.138;9.816;2024-02-21T07:28:00;33.05;;;20.35;;
82230;SDS011;71832;45.138;9.816;2024-02-21T07:30:28;30.85;;;19.13;;
82230;SDS011;71832;45.138;9.816;2024-02-21T07:32:57;32.17;;;19.23;;
82230;SDS011;71832;45.138;9.816;2024-02-21T07:35:26;33.13;;;19.25;;
82230;SDS011;71832;45.138;9.816;2024-02-21T07:37:55;35.05;;;20.05;;
82230;SDS011;71832;45.138;9.816;2024-02-21T07:40:23;33.95;;;20.88;;
82230;SDS011;71832;45.138;9.816;2024-02-21T07:42:50;35.33;;;20.98;;
82230;SDS011;71832;45.138;9.816;2024-02-21T07:45:18;38.20;;;22.50;;
82230;SDS011;71832;45.138;9.816;2024-02-21T07:47:49;37.33;;;22.15;;
82230;SDS011;71832;45.138;9.816;2024-02-21T07:50:17;39.80;;;23.60;;
82230;SDS011;71832;45.138;9.816;2024-02-21T07:52:44;51.83;;;27.30;;
82230;SDS011;71832;45.138;9.816;2024-02-21T07:55:12;50.90;;;28.67;;
82230;SDS011;71832;45.138;9.816;2024-02-21T07:57:40;46.78;;;26.10;;
82230;SDS011;71832;45.138;9.816;2024-02-21T08:00:08;38.08;;;20.52;;
82230;SDS011;71832;45.138;9.816;2024-02-21T08:02:40;39.38;;;21.77;;
82230;SDS011;71832;45.138;9.816;2024-02-21T08:05:09;37.08;;;22.05;;
82230;SDS011;71832;45.138;9.816;2024-02-21T08:07:38;41.63;;;25.05;;
82230;SDS011;71832;45.138;9.816;2024-02-21T08:10:07;35.85;;;21.38;;
82230;SDS011;71832;45.138;9.816;2024-02-21T08:12:35;40.72;;;22.27;;
82230;SDS011;71832;45.138;9.816;2024-02-21T08:15:02;39.42;;;22.42;;
82230;SDS011;71832;45.138;9.816;2024-02-21T08:17:30;37.63;;;21.70;;
82230;SDS011;71832;45.138;9.816;2024-02-21T08:19:58;38.70;;;21.15;;
82230;SDS011;71832;45.138;9.816;2024-02-21T08:22:25;35.15;;;20.88;;
82230;SDS011;71832;45.138;9.816;2024-02-21T08:24:53;37.42;;;19.65;;
82230;SDS011;71832;45.138;9.816;2024-02-21T08:27:20;37.03;;;19.80;;
82230;SDS011;71832;45.138;9.816;2024-02-21T08:29:47;36.58;;;18.67;;
82230;SDS011;71832;45.138;9.816;2024-02-21T08:32:15;35.75;;;18.60;;
82230;SDS011;71832;45.138;9.816;2024-02-21T08:34:44;33.45;;;17.63;;
82230;SDS011;71832;45.138;9.816;2024-02-21T08:37:11;34.28;;;18.02;;
82230;SDS011;71832;45.138;9.816;2024-02-21T08:39:39;34.25;;;18.60;;
82230;SDS011;71832;45.138;9.816;2024-02-21T08:42:06;40.55;;;19.77;;
82230;SDS011;71832;45.138;9.816;2024-02-21T08:44:33;35.75;;;18.38;;
82230;SDS011;71832;45.138;9.816;2024-02-21T08:47:01;41.42;;;19.17;;
82230;SDS011;71832;45.138;9.816;2024-02-21T08:49:29;34.10;;;18.25;;
82230;SDS011;71832;45.138;9.816;2024-02-21T08:51:57;36.97;;;19.15;;
82230;SDS011;71832;45.138;9.816;2024-02-21T08:54:28;37.08;;;18.50;;
82230;SDS011;71832;45.138;9.816;2024-02-21T08:56:56;35.38;;;19.60;;
82230;SDS011;71832;45.138;9.816;2024-02-21T08:59:24;40.47;;;20.63;;
82230;SDS011;71832;45.138;9.816;2024-02-21T09:01:51;39.13;;;19.15;;
82230;SDS011;71832;45.138;9.816;2024-02-21T09:04:19;40.65;;;19.30;;
82230;SDS011;71832;45.138;9.816;2024-02-21T09:06:47;41.80;;;19.67;;
82230;SDS011;71832;45.138;9.816;2024-02-21T09:09:15;36.92;;;20.25;;
82230;SDS011;71832;45.138;9.816;2024-02-21T09:11:44;45.65;;;21.38;;
82230;SDS011;71832;45.138;9.816;2024-02-21T09:14:12;40.58;;;20.85;;
82230;SDS011;71832;45.138;9.816;2024-02-21T09:16:40;42.10;;;20.73;;
82230;SDS011;71832;45.138;9.816;2024-02-21T09:19:08;52.80;;;23.92;;
82230;SDS011;71832;45.138;9.816;2024-02-21T09:21:37;48.33;;;22.83;;
82230;SDS011;71832;45.138;9.816;2024-02-21T09:24:05;47.65;;;23.60;;
82230;SDS011;71832;45.138;9.816;2024-02-21T09:26:34;49.17;;;23.50;;
82230;SDS011;71832;45.138;9.816;2024-02-21T09:29:02;53.88;;;23.98;;
82230;SDS011;71832;45.138;9.816;2024-02-21T09:31:31;54.92;;;23.83;;
82230;SDS011;71832;45.138;9.816;2024-02-21T09:33:58;59.65;;;26.15;;
82230;SDS011;71832;45.138;9.816;2024-02-21T09:36:27;57.03;;;26.27;;
82230;SDS011;71832;45.138;9.816;2024-02-21T09:38:55;58.15;;;25.70;;
82230;SDS011;71832;45.138;9.816;2024-02-21T09:43:54;58.67;;;27.77;;
82230;SDS011;71832;45.138;9.816;2024-02-21T09:49:30;72.47;;;32.33;;
82230;SDS011;71832;45.138;9.816;2024-02-21T09:52:00;74.50;;;36.00;;
82230;SDS011;71832;45.138;9.816;2024-02-21T09:54:29;77.45;;;34.70;;
82230;SDS011;71832;45.138;9.816;2024-02-21T09:57:00;68.78;;;31.85;;
82230;SDS011;71832;45.138;9.816;2024-02-21T09:59:32;68.90;;;32.72;;
82230;SDS011;71832;45.138;9.816;2024-02-21T10:02:01;69.32;;;32.53;;
82230;SDS011;71832;45.138;9.816;2024-02-21T10:04:30;78.18;;;35.70;;
82230;SDS011;71832;45.138;9.816;2024-02-21T10:06:59;83.63;;;37.72;;
82230;SDS011;71832;45.138;9.816;2024-02-21T10:09:28;76.15;;;35.22;;
82230;SDS011;71832;45.138;9.816;2024-02-21T10:12:07;73.20;;;35.35;;
82230;SDS011;71832;45.138;9.816;2024-02-21T10:14:36;74.40;;;35.85;;
82230;SDS011;71832;45.138;9.816;2024-02-21T10:17:03;72.70;;;35.10;;
82230;SDS011;71832;45.138;9.816;2024-02-21T10:19:35;75.53;;;35.38;;
82230;SDS011;71832;45.138;9.816;2024-02-21T10:22:03;80.90;;;35.70;;
82230;SDS011;71832;45.138;9.816;2024-02-21T10:24:33;71.15;;;35.58;;
82230;SDS011;71832;45.138;9.816;2024-02-21T10:27:04;79.90;;;36.90;;
82230;SDS011;71832;45.138;9.816;2024-02-21T10:29:34;78.40;;;37.22;;
82230;SDS011;71832;45.138;9.816;2024-02-21T10:34:35;82.65;;;38.38;;
82230;SDS011;71832;45.138;9.816;2024-02-21T10:37:04;82.90;;;37.17;;
82230;SDS011;71832;45.138;9.816;2024-02-21T10:39:35;74.88;;;35.90;;
82230;SDS011;71832;45.138;9.816;2024-02-21T10:42:05;78.35;;;35.42;;
82230;SDS011;71832;45.138;9.816;2024-02-21T10:44:37;77.93;;;36.88;;
82230;SDS011;71832;45.138;9.816;2024-02-21T10:47:08;73.85;;;35.17;;
82230;SDS011;71832;45.138;9.816;2024-02-21T10:49:39;75.60;;;35.50;;
82230;SDS011;71832;45.138;9.816;2024-02-21T10:54:45;79.05;;;37.78;;
82230;SDS011;71832;45.138;9.816;2024-02-21T10:57:23;81.65;;;37.05;;
82230;SDS011;71832;45.138;9.816;2024-02-21T10:59:53;71.85;;;35.95;;
82230;SDS011;71832;45.138;9.816;2024-02-21T11:04:55;73.07;;;35.65;;
82230;SDS011;71832;45.138;9.816;2024-02-21T11:07:24;78.85;;;36.70;;
82230;SDS011;71832;45.138;9.816;2024-02-21T11:09:53;80.65;;;38.55;;
82230;SDS011;71832;45.138;9.816;2024-02-21T11:12:22;81.55;;;38.15;;
82230;SDS011;71832;45.138;9.816;2024-02-21T11:15:03;82.57;;;39.67;;
82230;SDS011;71832;45.138;9.816;2024-02-21T11:17:32;79.07;;;38.58;;
82230;SDS011;71832;45.138;9.816;2024-02-21T11:20:21;84.75;;;38.13;;
82230;SDS011;71832;45.138;9.816;2024-02-21T11:22:59;84.55;;;40.38;;
82230;SDS011;71832;45.138;9.816;2024-02-21T11:25:28;87.45;;;40.47;;
82230;SDS011;71832;45.138;9.816;2024-02-21T11:27:59;87.57;;;41.50;;
82230;SDS011;71832;45.138;9.816;2024-02-21T11:30:30;81.30;;;39.25;;
82230;SDS011;71832;45.138;9.816;2024-02-21T11:33:00;81.55;;;38.80;;
82230;SDS011;71832;45.138;9.816;2024-02-21T11:35:33;76.07;;;38.40;;
82230;SDS011;71832;45.138;9.816;2024-02-21T11:38:22;78.95;;;38.78;;
82230;SDS011;71832;45.138;9.816;2024-02-21T11:40:51;77.25;;;37.67;;
82230;SDS011;71832;45.138;9.816;2024-02-21T11:43:19;79.00;;;41.03;;
82230;SDS011;71832;45.138;9.816;2024-02-21T11:45:48;84.35;;;40.33;;
82230;SDS011;71832;45.138;9.816;2024-02-21T11:48:16;76.57;;;38.97;;
82230;SDS011;71832;45.138;9.816;2024-02-21T11:50:52;78.57;;;38.25;;
82230;SDS011;71832;45.138;9.816;2024-02-21T11:53:20;78.40;;;38.35;;
82230;SDS011;71832;45.138;9.816;2024-02-21T11:55:49;74.88;;;37.35;;
82230;SDS011;71832;45.138;9.816;2024-02-21T11:58:17;82.03;;;39.67;;
82230;SDS011;71832;45.138;9.816;2024-02-21T12:00:45;78.60;;;37.85;;
82230;SDS011;71832;45.138;9.816;2024-02-21T12:03:14;85.05;;;39.60;;
82230;SDS011;71832;45.138;9.816;2024-02-21T12:05:43;76.18;;;37.20;;
82230;SDS011;71832;45.138;9.816;2024-02-21T12:08:12;76.68;;;38.85;;
82230;SDS011;71832;45.138;9.816;2024-02-21T12:10:41;78.13;;;39.20;;
82230;SDS011;71832;45.138;9.816;2024-02-21T12:13:10;79.65;;;39.10;;
82230;SDS011;71832;45.138;9.816;2024-02-21T12:15:38;79.72;;;37.72;;
82230;SDS011;71832;45.138;9.816;2024-02-21T12:18:07;78.28;;;38.33;;
82230;SDS011;71832;45.138;9.816;2024-02-21T12:20:36;74.28;;;37.47;;
82230;SDS011;71832;45.138;9.816;2024-02-21T12:23:03;78.68;;;39.35;;
82230;SDS011;71832;45.138;9.816;2024-02-21T12:25:36;78.43;;;40.08;;
82230;SDS011;71832;45.138;9.816;2024-02-21T12:28:25;75.10;;;36.33;;
82230;SDS011;71832;45.138;9.816;2024-02-21T12:30:53;72.53;;;35.88;;
82230;SDS011;71832;45.138;9.816;2024-02-21T12:33:21;77.85;;;38.47;;
82230;SDS011;71832;45.138;9.816;2024-02-21T12:35:48;72.90;;;36.97;;
82230;SDS011;71832;45.138;9.816;2024-02-21T12:38:16;71.55;;;36.13;;
82230;SDS011;71832;45.138;9.816;2024-02-21T12:40:46;73.75;;;37.25;;
82230;SDS011;71832;45.138;9.816;2024-02-21T12:43:14;74.00;;;37.60;;
82230;SDS011;71832;45.138;9.816;2024-02-21T12:45:43;70.05;;;34.10;;
82230;SDS011;71832;45.138;9.816;2024-02-21T12:48:12;66.13;;;33.53;;
82230;SDS011;71832;45.138;9.816;2024-02-21T12:50:42;63.55;;;32.92;;
82230;SDS011;71832;45.138;9.816;2024-02-21T12:53:18;74.65;;;34.40;;
82230;SDS011;71832;45.138;9.816;2024-02-21T12:55:48;65.75;;;33.25;;
82230;SDS011;71832;45.138;9.816;2024-02-21T12:58:17;61.13;;;31.80;;
82230;SDS011;71832;45.138;9.816;2024-02-21T13:00:47;64.97;;;34.55;;
82230;SDS011;71832;45.138;9.816;2024-02-21T13:03:16;71.35;;;36.00;;
82230;SDS011;71832;45.138;9.816;2024-02-21T13:05:44;67.38;;;35.58;;
82230;SDS011;71832;45.138;9.816;2024-02-21T13:08:14;67.13;;;34.53;;
82230;SDS011;71832;45.138;9.816;2024-02-21T13:10:42;69.03;;;34.72;;
82230;SDS011;71832;45.138;9.816;2024-02-21T13:13:10;66.53;;;34.03;;
82230;SDS011;71832;45.138;9.816;2024-02-21T13:15:38;66.18;;;33.25;;
82230;SDS011;71832;45.138;9.816;2024-02-21T13:18:08;61.17;;;32.35;;
82230;SDS011;71832;45.138;9.816;2024-02-21T13:20:37;55.40;;;29.63;;
82230;SDS011;71832;45.138;9.816;2024-02-21T13:23:05;62.08;;;30.83;;
82230;SDS011;71832;45.138;9.816;2024-02-21T13:25:34;62.85;;;31.52;;
82230;SDS011;71832;45.138;9.816;2024-02-21T13:28:02;62.88;;;32.60;;
82230;SDS011;71832;45.138;9.816;2024-02-21T13:30:30;66.38;;;31.98;;
82230;SDS011;71832;45.138;9.816;2024-02-21T13:32:58;68.03;;;34.85;;
82230;SDS011;71832;45.138;9.816;2024-02-21T13:35:25;69.28;;;34.05;;
82230;SDS011;71832;45.138;9.816;2024-02-21T13:37:53;57.50;;;30.25;;
82230;SDS011;71832;45.138;9.816;2024-02-21T13:40:21;57.03;;;30.40;;
82230;SDS011;71832;45.138;9.816;2024-02-21T13:42:50;53.63;;;27.27;;
82230;SDS011;71832;45.138;9.816;2024-02-21T13:45:19;56.42;;;29.75;;
82230;SDS011;71832;45.138;9.816;2024-02-21T13:47:47;53.15;;;27.70;;
82230;SDS011;71832;45.138;9.816;2024-02-21T13:50:15;52.38;;;27.88;;
82230;SDS011;71832;45.138;9.816;2024-02-21T13:52:44;54.15;;;28.63;;
82230;SDS011;71832;45.138;9.816;2024-02-21T13:55:13;58.67;;;29.95;;
82230;SDS011;71832;45.138;9.816;2024-02-21T13:57:42;56.17;;;29.80;;
82230;SDS011;71832;45.138;9.816;2024-02-21T14:00:11;58.35;;;29.48;;
82230;SDS011;71832;45.138;9.816;2024-02-21T14:02:39;64.88;;;31.88;;
82230;SDS011;71832;45.138;9.816;2024-02-21T14:05:08;58.63;;;29.38;;
82230;SDS011;71832;45.138;9.816;2024-02-21T14:07:38;53.83;;;28.55;;
82230;SDS011;71832;45.138;9.816;2024-02-21T14:10:07;52.65;;;28.10;;
82230;SDS011;71832;45.138;9.816;2024-02-21T14:12:36;59.60;;;31.05;;
82230;SDS011;71832;45.138;9.816;2024-02-21T14:15:06;55.15;;;29.10;;
82230;SDS011;71832;45.138;9.816;2024-02-21T14:17:35;61.03;;;29.55;;
82230;SDS011;71832;45.138;9.816;2024-02-21T14:20:05;57.75;;;29.33;;
82230;SDS011;71832;45.138;9.816;2024-02-21T14:22:34;58.08;;;30.20;;
82230;SDS011;71832;45.138;9.816;2024-02-21T14:25:03;62.47;;;30.42;;
82230;SDS011;71832;45.138;9.816;2024-02-21T14:27:32;62.63;;;29.75;;
82230;SDS011;71832;45.138;9.816;2024-02-21T14:30:02;57.72;;;29.42;;
82230;SDS011;71832;45.138;9.816;2024-02-21T14:32:31;58.50;;;30.23;;
82230;SDS011;71832;45.138;9.816;2024-02-21T14:35:00;57.58;;;28.63;;
82230;SDS011;71832;45.138;9.816;2024-02-21T14:37:29;53.40;;;27.50;;
82230;SDS011;71832;45.138;9.816;2024-02-21T14:39:58;96.90;;;35.65;;
82230;SDS011;71832;45.138;9.816;2024-02-21T14:42:26;69.70;;;30.92;;
82230;SDS011;71832;45.138;9.816;2024-02-21T14:44:55;59.47;;;29.92;;
82230;SDS011;71832;45.138;9.816;2024-02-21T14:47:30;64.75;;;30.40;;
82230;SDS011;71832;45.138;9.816;2024-02-21T14:49:59;52.72;;;27.70;;